createdAt,value
2019-03-28T00:02:10.359Z,37.60
2019-03-28T00:04:38.870Z,33.43
2019-03-28T00:07:07.444Z,35.38
2019-03-28T00:09:36.407Z,31.12
2019-03-28T00:12:04.551Z,34.43
2019-03-28T00:14:33.255Z,33.18
2019-03-28T00:17:03.803Z,34.35
2019-03-28T00:19:31.805Z,34.75
2019-03-28T00:22:01.078Z,35.83
2019-03-28T00:24:34.181Z,36.75
2019-03-28T00:27:02.186Z,34.30
2019-03-28T00:29:30.793Z,33.15
2019-03-28T00:31:58.818Z,33.48
2019-03-28T00:34:27.434Z,29.75
2019-03-28T00:36:56.534Z,29.27
2019-03-28T00:39:24.513Z,28.95
2019-03-28T00:41:52.479Z,27.67
2019-03-28T00:44:20.273Z,31.37
2019-03-28T00:46:49.321Z,29.87
2019-03-28T00:49:18.265Z,31.00
2019-03-28T00:51:47.185Z,29.77
2019-03-28T00:54:15.288Z,34.13
2019-03-28T00:56:47.354Z,28.70
2019-03-28T01:01:41.210Z,30.10
2019-03-28T01:04:09.683Z,33.80
2019-03-28T01:06:37.800Z,30.20
2019-03-28T01:09:08.649Z,31.30
2019-03-28T01:11:37.155Z,31.50
2019-03-28T01:14:06.364Z,37.00
2019-03-28T01:16:34.428Z,31.42
2019-03-28T01:19:02.978Z,31.02
2019-03-28T01:21:31.413Z,30.55
2019-03-28T01:24:00.320Z,29.63
2019-03-28T01:26:28.536Z,27.45
2019-03-28T01:28:56.295Z,34.15
2019-03-28T01:31:25.101Z,34.53
2019-03-28T01:33:53.754Z,33.05
2019-03-28T01:36:21.809Z,34.75
2019-03-28T01:38:50.507Z,35.65
2019-03-28T01:41:18.516Z,34.85
2019-03-28T01:43:47.045Z,35.55
2019-03-28T01:46:15.878Z,35.80
2019-03-28T01:48:44.257Z,33.33
2019-03-28T01:51:12.612Z,38.00
2019-03-28T01:53:40.954Z,40.90
2019-03-28T01:56:09.118Z,33.95
2019-03-28T01:58:37.247Z,34.78
2019-03-28T02:01:05.271Z,34.98
2019-03-28T02:03:33.074Z,33.58
2019-03-28T02:06:01.025Z,33.23
2019-03-28T02:08:29.887Z,37.50
2019-03-28T02:10:58.099Z,35.03
2019-03-28T02:13:27.134Z,33.35
2019-03-28T02:15:55.560Z,34.30
2019-03-28T02:18:24.372Z,35.45
2019-03-28T02:20:52.747Z,37.17
2019-03-28T02:23:21.108Z,35.90
2019-03-28T02:25:49.170Z,33.25
2019-03-28T02:28:17.926Z,37.17
2019-03-28T02:30:46.999Z,36.13
2019-03-28T02:33:14.890Z,42.13
2019-03-28T02:35:44.131Z,33.90
2019-03-28T02:38:12.685Z,37.60
2019-03-28T02:40:42.703Z,38.10
2019-03-28T02:43:11.092Z,35.98
2019-03-28T02:45:40.861Z,39.20
2019-03-28T02:48:08.838Z,42.63
2019-03-28T02:50:37.841Z,37.03
2019-03-28T02:53:07.077Z,34.73
2019-03-28T02:55:36.400Z,36.28
2019-03-28T02:58:05.743Z,40.23
2019-03-28T03:00:35.038Z,34.18
2019-03-28T03:03:03.858Z,33.80
2019-03-28T03:05:33.454Z,29.23
2019-03-28T03:08:02.356Z,30.88
2019-03-28T03:10:30.974Z,32.40
2019-03-28T03:13:00.869Z,27.15
2019-03-28T03:15:30.327Z,28.98
2019-03-28T03:17:58.528Z,31.97
2019-03-28T03:20:28.015Z,36.60
2019-03-28T03:22:56.063Z,32.10
2019-03-28T03:25:24.532Z,34.83
2019-03-28T03:27:58.593Z,31.62
2019-03-28T03:30:23.838Z,34.10
2019-03-28T03:32:51.972Z,42.00
2019-03-28T03:35:19.814Z,33.35
2019-03-28T03:37:48.109Z,33.60
2019-03-28T03:40:17.306Z,32.25
2019-03-28T03:42:47.539Z,36.83
2019-03-28T03:45:15.784Z,34.38
2019-03-28T03:47:45.784Z,35.50
2019-03-28T03:50:35.761Z,35.85
2019-03-28T03:53:04.034Z,34.40
2019-03-28T03:55:32.745Z,37.13
2019-03-28T03:58:14.331Z,30.68
2019-03-28T04:00:32.359Z,30.45
2019-03-28T04:03:00.954Z,38.78
2019-03-28T04:05:30.082Z,43.15
2019-03-28T04:08:00.285Z,35.38
2019-03-28T04:10:28.757Z,37.85
2019-03-28T04:12:57.551Z,38.70
2019-03-28T04:15:25.377Z,39.53
2019-03-28T04:17:53.635Z,40.25
2019-03-28T04:20:21.621Z,42.53
2019-03-28T04:22:57.153Z,37.33
2019-03-28T04:25:25.275Z,39.78
2019-03-28T04:27:53.676Z,41.20
2019-03-28T04:30:23.269Z,33.13
2019-03-28T04:32:51.148Z,36.03
2019-03-28T04:35:19.849Z,38.10
2019-03-28T04:37:48.088Z,33.15
2019-03-28T04:40:16.596Z,33.13
2019-03-28T04:42:46.016Z,38.78
2019-03-28T04:45:14.634Z,34.63
2019-03-28T04:47:43.383Z,31.80
2019-03-28T04:50:11.593Z,35.05
2019-03-28T04:52:39.702Z,38.20
2019-03-28T04:55:08.896Z,37.83
2019-03-28T04:57:37.003Z,37.20
2019-03-28T05:00:07.348Z,38.98
2019-03-28T05:02:36.777Z,37.28
2019-03-28T05:05:04.819Z,39.48
2019-03-28T05:07:33.854Z,35.95
2019-03-28T05:10:01.603Z,32.17
2019-03-28T05:12:29.964Z,32.38
2019-03-28T05:14:57.852Z,33.33
2019-03-28T05:17:26.199Z,37.95
2019-03-28T05:19:54.957Z,37.28
2019-03-28T05:22:23.057Z,33.28
2019-03-28T05:24:50.828Z,35.88
2019-03-28T05:27:18.773Z,31.52
2019-03-28T05:29:48.116Z,33.18
2019-03-28T05:32:18.781Z,36.08
2019-03-28T05:34:47.192Z,36.13
2019-03-28T05:37:15.179Z,37.70
2019-03-28T05:39:43.075Z,43.55
2019-03-28T05:42:11.230Z,34.70
2019-03-28T05:44:39.760Z,34.95
2019-03-28T05:47:08.208Z,37.75
2019-03-28T05:49:36.736Z,34.33
2019-03-28T05:52:04.871Z,34.20
2019-03-28T05:54:33.012Z,31.57
2019-03-28T05:57:01.253Z,31.17
2019-03-28T05:59:30.373Z,31.68
2019-03-28T06:01:58.508Z,35.30
2019-03-28T06:04:26.588Z,36.63
2019-03-28T06:06:55.515Z,39.05
2019-03-28T06:09:23.840Z,38.23
2019-03-28T06:11:53.044Z,41.40
2019-03-28T06:14:21.346Z,38.60
2019-03-28T06:16:50.014Z,36.40
2019-03-28T06:19:18.128Z,42.45
2019-03-28T06:21:46.229Z,36.75
2019-03-28T06:24:14.486Z,37.67
2019-03-28T06:26:43.359Z,41.53
2019-03-28T06:29:23.137Z,39.67
2019-03-28T06:31:54.311Z,38.98
2019-03-28T06:34:11.851Z,39.13
2019-03-28T06:36:40.625Z,42.38
2019-03-28T06:39:10.864Z,36.58
2019-03-28T06:41:39.702Z,41.05
2019-03-28T06:44:07.940Z,37.35
2019-03-28T06:46:36.452Z,37.30
2019-03-28T06:49:04.566Z,38.88
2019-03-28T06:51:32.798Z,37.50
2019-03-28T06:54:01.003Z,38.55
2019-03-28T06:56:29.635Z,42.58
2019-03-28T06:58:58.016Z,36.53
2019-03-28T07:01:26.169Z,40.38
2019-03-28T07:03:53.954Z,42.43
2019-03-28T07:06:23.035Z,40.70
2019-03-28T07:08:51.660Z,42.27
2019-03-28T07:11:19.624Z,39.60
2019-03-28T07:13:47.688Z,38.73
2019-03-28T07:16:16.840Z,40.08
2019-03-28T07:18:44.789Z,41.42
2019-03-28T07:21:14.270Z,44.33
2019-03-28T07:23:42.351Z,45.28
2019-03-28T07:26:10.479Z,41.77
2019-03-28T07:28:39.390Z,42.67
2019-03-28T07:31:08.256Z,41.15
2019-03-28T07:33:36.882Z,48.65
2019-03-28T07:36:05.084Z,43.98
2019-03-28T07:38:33.351Z,53.00
2019-03-28T07:41:01.451Z,58.45
2019-03-28T07:43:29.528Z,58.10
2019-03-28T07:45:57.793Z,51.80
2019-03-28T07:48:25.776Z,54.53
2019-03-28T07:50:53.997Z,58.17
2019-03-28T07:53:22.307Z,55.90
2019-03-28T07:55:50.339Z,53.58
2019-03-28T07:58:18.423Z,94.17
2019-03-28T08:00:46.794Z,52.93
2019-03-28T08:03:14.801Z,61.42
2019-03-28T08:05:43.016Z,59.88
2019-03-28T08:08:11.234Z,61.42
2019-03-28T08:10:39.192Z,51.25
2019-03-28T08:13:09.557Z,51.85
2019-03-28T08:15:37.873Z,49.88
2019-03-28T08:18:05.975Z,51.15
2019-03-28T08:20:34.134Z,55.95
2019-03-28T08:23:01.965Z,45.70
2019-03-28T08:25:31.505Z,44.60
2019-03-28T08:27:59.852Z,48.80
2019-03-28T08:30:34.568Z,53.50
2019-03-28T08:33:04.908Z,47.65
2019-03-28T08:35:36.327Z,53.00
2019-03-28T08:38:04.692Z,46.28
2019-03-28T08:40:34.682Z,46.73
2019-03-28T08:43:03.314Z,46.33
2019-03-28T08:45:31.495Z,49.05
2019-03-28T08:47:59.624Z,40.98
2019-03-28T08:50:27.781Z,39.65
2019-03-28T08:52:56.899Z,38.48
2019-03-28T08:55:25.692Z,32.30
2019-03-28T08:57:54.273Z,33.33
2019-03-28T09:00:32.887Z,27.02
2019-03-28T09:02:54.917Z,24.77
2019-03-28T09:05:23.393Z,27.55
2019-03-28T09:07:53.242Z,27.52
2019-03-28T09:10:21.453Z,22.32
2019-03-28T09:12:49.560Z,29.45
2019-03-28T09:15:18.129Z,27.00
2019-03-28T09:17:46.459Z,28.12
2019-03-28T09:20:14.470Z,26.00
2019-03-28T09:22:42.354Z,24.63
2019-03-28T09:25:12.502Z,25.65
2019-03-28T09:27:40.748Z,27.30
2019-03-28T09:30:09.639Z,25.60
2019-03-28T09:32:38.080Z,24.75
2019-03-28T09:35:09.378Z,17.12
2019-03-28T09:37:37.296Z,15.50
2019-03-28T09:40:06.195Z,21.12
2019-03-28T09:42:34.181Z,21.68
2019-03-28T09:45:03.112Z,23.85
2019-03-28T09:47:31.682Z,23.22
2019-03-28T09:50:00.421Z,18.62
2019-03-28T09:52:28.683Z,20.52
2019-03-28T09:54:58.942Z,21.68
2019-03-28T09:57:27.453Z,23.00
2019-03-28T09:59:55.550Z,20.27
2019-03-28T10:02:24.112Z,19.25
2019-03-28T10:04:52.265Z,17.52
2019-03-28T10:07:20.554Z,16.77
2019-03-28T10:09:50.285Z,19.50
2019-03-28T10:12:19.600Z,21.60
2019-03-28T10:14:47.835Z,21.75
2019-03-28T10:17:15.884Z,17.52
2019-03-28T10:19:44.292Z,16.15
2019-03-28T10:22:12.508Z,19.25
2019-03-28T10:24:41.017Z,19.37
2019-03-28T10:27:09.168Z,17.87
2019-03-28T10:29:37.296Z,17.17
2019-03-28T10:32:06.469Z,18.37
2019-03-28T10:34:35.509Z,16.48
2019-03-28T10:37:04.108Z,16.70
2019-03-28T10:39:34.342Z,16.50
2019-03-28T10:42:02.104Z,19.75
2019-03-28T10:44:30.941Z,18.15
2019-03-28T10:46:59.666Z,21.35
2019-03-28T10:49:27.778Z,17.12
2019-03-28T10:51:56.588Z,18.32
2019-03-28T10:54:25.898Z,19.55
2019-03-28T10:56:57.517Z,20.68
2019-03-28T10:59:27.520Z,17.23
2019-03-28T11:01:55.852Z,18.55
2019-03-28T11:04:24.374Z,20.35
2019-03-28T11:06:53.039Z,17.40
2019-03-28T11:09:21.441Z,21.27
2019-03-28T11:11:49.283Z,17.87
2019-03-28T11:14:17.756Z,19.67
2019-03-28T11:16:48.211Z,20.68
2019-03-28T11:19:16.871Z,19.55
2019-03-28T11:21:46.765Z,17.95
2019-03-28T11:24:14.879Z,19.48
2019-03-28T11:26:42.970Z,20.35
2019-03-28T11:29:11.575Z,17.77
2019-03-28T11:31:46.875Z,18.23
2019-03-28T11:34:12.797Z,16.55
2019-03-28T11:36:41.445Z,14.43
2019-03-28T11:39:10.056Z,16.35
2019-03-28T11:41:38.349Z,19.80
2019-03-28T11:44:06.127Z,19.20
2019-03-28T11:46:34.488Z,18.37
2019-03-28T11:49:02.531Z,15.45
2019-03-28T11:51:31.255Z,14.33
2019-03-28T11:53:59.715Z,11.80
2019-03-28T11:56:27.921Z,13.68
2019-03-28T11:58:56.284Z,11.35
2019-03-28T12:01:24.350Z,12.10
2019-03-28T12:03:52.940Z,12.50
2019-03-28T12:06:21.124Z,11.20
2019-03-28T12:08:49.153Z,13.70
2019-03-28T12:11:18.231Z,14.35
2019-03-28T12:13:46.312Z,14.20
2019-03-28T12:16:14.841Z,10.03
2019-03-28T12:18:43.511Z,12.20
2019-03-28T12:21:11.796Z,10.28
2019-03-28T12:23:40.252Z,9.58
2019-03-28T12:26:08.232Z,11.57
2019-03-28T12:28:37.367Z,12.53
2019-03-28T12:31:06.465Z,10.32
2019-03-28T12:33:34.787Z,10.70
2019-03-28T12:36:03.902Z,9.55
2019-03-28T12:38:31.671Z,14.53
2019-03-28T12:41:00.602Z,12.00
2019-03-28T12:43:29.215Z,13.70
2019-03-28T12:46:00.993Z,11.33
2019-03-28T12:48:29.160Z,7.10
2019-03-28T12:50:59.019Z,11.40
2019-03-28T12:53:28.401Z,6.58
2019-03-28T12:55:57.223Z,11.70
2019-03-28T12:58:25.018Z,13.13
2019-03-28T13:00:53.035Z,12.33
2019-03-28T13:03:21.557Z,12.25
2019-03-28T13:05:51.343Z,13.55
2019-03-28T13:08:19.772Z,12.87
2019-03-28T13:10:48.263Z,14.18
2019-03-28T13:13:17.584Z,9.53
2019-03-28T13:15:45.719Z,12.33
2019-03-28T13:18:14.391Z,10.98
2019-03-28T13:20:42.999Z,10.13
2019-03-28T13:23:11.049Z,9.63
2019-03-28T13:25:39.471Z,10.93
2019-03-28T13:28:07.575Z,10.85
2019-03-28T13:30:36.282Z,13.90
2019-03-28T13:33:04.187Z,10.70
2019-03-28T13:35:35.138Z,9.25
2019-03-28T13:38:04.462Z,8.13
2019-03-28T13:40:32.212Z,10.45
2019-03-28T13:43:01.195Z,9.48
2019-03-28T13:45:29.442Z,8.68
2019-03-28T13:47:57.248Z,9.83
2019-03-28T13:50:25.267Z,7.97
2019-03-28T13:52:54.271Z,10.03
2019-03-28T13:55:22.846Z,11.20
2019-03-28T13:57:52.347Z,10.98
2019-03-28T14:00:31.893Z,8.33
2019-03-28T14:03:01.654Z,14.10
2019-03-28T14:05:29.880Z,9.43
2019-03-28T14:07:58.266Z,10.28
2019-03-28T14:10:26.312Z,8.70
2019-03-28T14:12:54.745Z,9.08
2019-03-28T14:15:22.789Z,9.68
2019-03-28T14:17:50.970Z,8.38
2019-03-28T14:20:22.198Z,11.05
2019-03-28T14:22:49.253Z,11.25
2019-03-28T14:25:17.823Z,12.35
2019-03-28T14:27:45.834Z,12.30
2019-03-28T14:30:14.420Z,11.25
2019-03-28T14:32:53.283Z,9.43
2019-03-28T14:35:13.083Z,10.72
2019-03-28T14:37:41.304Z,12.43
2019-03-28T14:40:10.026Z,11.20
2019-03-28T14:42:38.119Z,8.90
2019-03-28T14:45:08.381Z,10.10
2019-03-28T14:47:37.792Z,10.98
2019-03-28T14:50:07.243Z,12.00
2019-03-28T14:52:35.295Z,11.50
2019-03-28T14:55:04.419Z,14.40
2019-03-28T14:57:32.558Z,11.97
2019-03-28T15:00:02.898Z,9.70
2019-03-28T15:02:31.269Z,12.13
2019-03-28T15:05:00.042Z,12.65
2019-03-28T15:07:28.252Z,13.83
2019-03-28T15:09:56.021Z,9.20
2019-03-28T15:12:25.125Z,13.53
2019-03-28T15:14:54.203Z,13.60
2019-03-28T15:17:22.679Z,10.18
2019-03-28T15:19:53.572Z,10.32
2019-03-28T15:22:25.085Z,11.50
2019-03-28T15:24:53.972Z,12.68
2019-03-28T15:27:23.203Z,10.85
2019-03-28T15:29:50.998Z,13.00
2019-03-28T15:32:19.723Z,11.18
2019-03-28T15:34:48.289Z,11.35
2019-03-28T15:37:17.010Z,10.60
2019-03-28T15:39:45.950Z,11.12
2019-03-28T15:42:14.277Z,11.30
2019-03-28T15:44:42.295Z,14.83
2019-03-28T15:47:10.646Z,12.88
2019-03-28T15:49:38.329Z,9.65
2019-03-28T15:52:06.843Z,12.70
2019-03-28T15:54:35.995Z,10.05
2019-03-28T15:57:04.619Z,9.58
2019-03-28T15:59:34.691Z,10.75
2019-03-28T16:02:03.585Z,10.85
2019-03-28T16:04:32.325Z,10.80
2019-03-28T16:07:02.020Z,8.78
2019-03-28T16:09:30.582Z,14.20
2019-03-28T16:12:02.731Z,11.33
2019-03-28T16:14:29.080Z,12.15
2019-03-28T16:16:57.179Z,9.70
2019-03-28T16:19:25.304Z,8.85
2019-03-28T16:21:54.247Z,8.83
2019-03-28T16:24:24.693Z,9.25
2019-03-28T16:26:55.142Z,8.28
2019-03-28T16:29:24.846Z,11.43
2019-03-28T16:31:53.236Z,12.33
2019-03-28T16:34:21.428Z,10.10
2019-03-28T16:36:50.739Z,12.53
2019-03-28T16:39:19.066Z,7.92
2019-03-28T16:41:49.109Z,10.45
2019-03-28T16:44:18.375Z,12.93
2019-03-28T16:46:46.387Z,8.80
2019-03-28T16:49:14.487Z,10.80
2019-03-28T16:51:43.643Z,9.75
2019-03-28T16:54:12.215Z,8.45
2019-03-28T16:56:40.541Z,9.83
2019-03-28T16:59:09.215Z,12.30
2019-03-28T17:01:37.448Z,8.90
2019-03-28T17:04:20.088Z,7.67
2019-03-28T17:06:38.039Z,7.87
2019-03-28T17:09:07.186Z,8.95
2019-03-28T17:11:35.694Z,6.85
2019-03-28T17:14:03.750Z,8.83
2019-03-28T17:16:31.764Z,5.47
2019-03-28T17:19:00.196Z,9.30
2019-03-28T17:21:28.801Z,5.95
2019-03-28T17:23:56.923Z,4.95
2019-03-28T17:26:25.091Z,5.55
2019-03-28T17:28:53.317Z,4.22
2019-03-28T17:31:22.273Z,3.95
2019-03-28T17:33:50.608Z,3.00
2019-03-28T17:36:19.107Z,4.20
2019-03-28T17:38:48.487Z,4.75
2019-03-28T17:41:17.693Z,4.42
2019-03-28T17:43:46.325Z,7.90
2019-03-28T17:46:16.006Z,3.22
2019-03-28T17:48:44.357Z,3.30
2019-03-28T17:51:13.052Z,7.20
2019-03-28T17:53:41.587Z,5.40
2019-03-28T17:56:12.873Z,4.47
2019-03-28T17:58:45.355Z,4.83
2019-03-28T18:01:16.540Z,4.87
2019-03-28T18:03:46.988Z,4.83
2019-03-28T18:06:17.357Z,5.05
2019-03-28T18:08:47.938Z,3.40
2019-03-28T18:11:17.723Z,4.58
2019-03-28T18:13:46.375Z,4.78
2019-03-28T18:16:15.208Z,3.55
2019-03-28T18:18:47.545Z,4.37
2019-03-28T18:21:15.587Z,4.50
2019-03-28T18:23:43.535Z,6.53
2019-03-28T18:26:12.364Z,6.60
2019-03-28T18:28:40.583Z,5.33
2019-03-28T18:31:09.337Z,8.63
2019-03-28T18:33:37.407Z,5.45
2019-03-28T18:36:05.956Z,4.90
2019-03-28T18:38:34.464Z,5.50
2019-03-28T18:41:03.125Z,7.45
2019-03-28T18:43:31.654Z,5.92
2019-03-28T18:46:01.113Z,7.50
2019-03-28T18:48:35.901Z,8.05
2019-03-28T18:51:01.002Z,7.67
2019-03-28T18:53:29.262Z,8.88
2019-03-28T18:55:57.795Z,7.15
2019-03-28T18:58:25.907Z,9.45
2019-03-28T19:00:54.386Z,10.00
2019-03-28T19:03:23.130Z,10.32
2019-03-28T19:05:52.170Z,8.33
2019-03-28T19:08:20.420Z,12.15
2019-03-28T19:10:51.050Z,9.53
2019-03-28T19:15:46.613Z,12.80
2019-03-28T19:18:15.270Z,8.20
2019-03-28T19:20:44.891Z,9.38
2019-03-28T19:23:13.906Z,10.05
2019-03-28T19:25:59.252Z,8.78
2019-03-28T19:28:29.611Z,8.83
2019-03-28T19:30:58.982Z,9.90
2019-03-28T19:33:26.942Z,8.48
2019-03-28T19:35:54.950Z,9.88
2019-03-28T19:38:23.400Z,7.87
2019-03-28T19:40:52.876Z,8.90
2019-03-28T19:43:22.949Z,7.70
2019-03-28T19:45:52.508Z,9.13
2019-03-28T19:48:20.993Z,9.15
2019-03-28T19:50:58.481Z,8.68
2019-03-28T19:53:26.544Z,10.63
2019-03-28T19:55:55.580Z,8.93
2019-03-28T19:58:23.904Z,8.63
2019-03-28T20:00:52.419Z,8.30
2019-03-28T20:03:23.261Z,9.58
2019-03-28T20:05:50.823Z,10.85
2019-03-28T20:08:18.873Z,9.73
2019-03-28T20:10:47.466Z,9.48
2019-03-28T20:13:17.828Z,10.30
2019-03-28T20:15:45.588Z,11.95
2019-03-28T20:18:13.494Z,10.45
2019-03-28T20:20:43.467Z,9.95
2019-03-28T20:23:12.635Z,9.20
2019-03-28T20:25:43.272Z,10.28
2019-03-28T20:28:14.265Z,11.68
2019-03-28T20:30:45.129Z,10.30
2019-03-28T20:33:14.210Z,12.78
2019-03-28T20:35:42.607Z,12.40
2019-03-28T20:38:10.650Z,11.10
2019-03-28T20:40:38.742Z,8.10
2019-03-28T20:43:08.052Z,9.75
2019-03-28T20:45:36.950Z,10.58
2019-03-28T20:48:06.695Z,9.50
2019-03-28T20:50:34.803Z,10.23
2019-03-28T20:53:03.324Z,11.38
2019-03-28T20:55:31.575Z,11.38
2019-03-28T20:58:00.316Z,10.70
2019-03-28T21:00:40.777Z,13.13
2019-03-28T21:03:09.514Z,12.45
2019-03-28T21:05:37.948Z,10.90
2019-03-28T21:08:07.492Z,11.43
2019-03-28T21:10:36.369Z,11.60
2019-03-28T21:13:04.667Z,10.90
2019-03-28T21:15:32.840Z,13.35
2019-03-28T21:18:01.085Z,16.52
2019-03-28T21:20:29.282Z,11.12
2019-03-28T21:22:57.781Z,11.35
2019-03-28T21:25:25.508Z,11.00
2019-03-28T21:27:55.167Z,12.80
2019-03-28T21:30:22.921Z,10.70
2019-03-28T21:32:55.629Z,9.80
2019-03-28T21:35:22.649Z,10.63
2019-03-28T21:37:51.581Z,12.70
2019-03-28T21:40:19.667Z,12.35
2019-03-28T21:42:48.086Z,11.33
2019-03-28T21:45:16.026Z,13.43
2019-03-28T21:47:43.787Z,15.13
2019-03-28T21:50:12.071Z,12.70
2019-03-28T21:52:40.302Z,10.50
2019-03-28T21:55:11.640Z,9.70
2019-03-28T22:00:07.256Z,11.25
2019-03-28T22:02:35.995Z,11.18
2019-03-28T22:05:04.315Z,13.62
2019-03-28T22:07:32.343Z,12.07
2019-03-28T22:10:00.645Z,11.35
2019-03-28T22:12:29.980Z,12.78
2019-03-28T22:14:58.746Z,13.50
2019-03-28T22:17:28.185Z,10.50
2019-03-28T22:19:56.458Z,15.75
2019-03-28T22:22:26.444Z,13.25
2019-03-28T22:24:54.228Z,13.75
2019-03-28T22:27:22.798Z,13.78
2019-03-28T22:29:50.916Z,13.55
2019-03-28T22:32:19.092Z,13.00
2019-03-28T22:34:47.464Z,16.02
2019-03-28T22:37:16.900Z,12.78
2019-03-28T22:39:46.311Z,12.37
2019-03-28T22:42:15.104Z,13.95
2019-03-28T22:44:43.099Z,16.87
2019-03-28T22:47:11.464Z,13.72
2019-03-28T22:49:40.461Z,13.53
2019-03-28T22:52:09.340Z,13.28
2019-03-28T22:54:38.332Z,15.28
2019-03-28T22:57:08.779Z,13.62
2019-03-28T22:59:37.091Z,13.25
2019-03-28T23:02:06.447Z,13.72
2019-03-28T23:04:36.295Z,14.18
2019-03-28T23:07:10.734Z,14.07
2019-03-28T23:09:34.598Z,17.80
2019-03-28T23:12:03.642Z,16.57
2019-03-28T23:14:31.671Z,14.78
2019-03-28T23:17:00.667Z,18.23
2019-03-28T23:19:32.277Z,14.35
2019-03-28T23:22:00.171Z,15.25
2019-03-28T23:24:27.919Z,16.25
2019-03-28T23:26:56.061Z,18.07
2019-03-28T23:29:24.617Z,16.00
2019-03-28T23:31:52.494Z,16.80
2019-03-28T23:34:20.732Z,16.07
2019-03-28T23:36:48.823Z,18.35
2019-03-28T23:39:19.234Z,14.95
2019-03-28T23:41:47.927Z,16.85
2019-03-28T23:44:16.366Z,17.90
2019-03-28T23:46:44.239Z,17.02
2019-03-28T23:49:12.339Z,19.23
2019-03-28T23:51:40.542Z,19.05
2019-03-28T23:54:08.311Z,19.32
2019-03-28T23:56:36.985Z,17.80
2019-03-28T23:59:06.502Z,19.10
